createdAt,value
2023-03-16T00:02:56.240Z,1.02
2023-03-16T00:05:58.651Z,1.10
2023-03-16T00:09:00.985Z,1.20
2023-03-16T00:12:03.792Z,1.30
2023-03-16T00:15:06.870Z,1.30
2023-03-16T00:18:09.274Z,1.20
2023-03-16T00:21:14.099Z,1.10
2023-03-16T00:24:18.758Z,0.87
2023-03-16T00:27:22.977Z,0.95
2023-03-16T00:30:27.480Z,0.93
2023-03-16T00:33:30.159Z,1.20
2023-03-16T00:36:33.984Z,1.20
2023-03-16T00:39:36.424Z,1.07
2023-03-16T00:42:38.800Z,1.35
2023-03-16T00:45:44.792Z,1.15
2023-03-16T00:48:47.667Z,1.10
2023-03-16T00:51:50.093Z,0.97
2023-03-16T00:54:53.180Z,1.00
2023-03-16T00:57:55.582Z,1.00
2023-03-16T01:00:59.607Z,1.02
2023-03-16T01:04:03.656Z,1.13
2023-03-16T01:07:12.349Z,1.10
2023-03-16T01:10:14.701Z,1.03
2023-03-16T01:13:17.053Z,1.00
2023-03-16T01:16:23.239Z,1.08
2023-03-16T01:19:25.757Z,1.13
2023-03-16T01:22:28.846Z,1.00
2023-03-16T01:25:32.520Z,1.07
2023-03-16T01:28:35.057Z,1.10
2023-03-16T01:31:37.461Z,1.13
2023-03-16T01:34:41.567Z,1.00
2023-03-16T01:37:45.156Z,1.10
2023-03-16T01:40:54.792Z,1.20
2023-03-16T01:43:58.621Z,1.13
2023-03-16T01:47:01.804Z,0.93
2023-03-16T01:50:05.336Z,1.00
2023-03-16T01:53:10.598Z,1.07
2023-03-16T01:56:15.916Z,0.80
2023-03-16T01:59:22.354Z,1.15
2023-03-16T02:02:30.468Z,1.15
2023-03-16T02:05:38.357Z,1.00
2023-03-16T02:08:43.383Z,1.00
2023-03-16T02:11:46.492Z,1.10
2023-03-16T02:14:51.329Z,0.85
2023-03-16T02:17:53.933Z,0.80
2023-03-16T02:21:33.211Z,0.85
2023-03-16T02:24:37.493Z,0.90
2023-03-16T02:27:53.562Z,0.93
2023-03-16T02:30:56.019Z,1.10
2023-03-16T02:33:58.712Z,1.00
2023-03-16T02:37:01.141Z,1.00
2023-03-16T02:40:21.064Z,0.93
2023-03-16T02:43:28.814Z,0.83
2023-03-16T02:46:46.635Z,0.80
2023-03-16T02:49:50.148Z,0.80
2023-03-16T02:52:52.641Z,0.82
2023-03-16T02:55:54.994Z,0.77
2023-03-16T02:58:57.956Z,0.90
2023-03-16T03:02:01.559Z,0.80
2023-03-16T03:05:04.054Z,0.90
2023-03-16T03:08:06.918Z,0.70
2023-03-16T03:11:09.632Z,1.00
2023-03-16T03:14:12.561Z,0.90
2023-03-16T03:17:16.299Z,1.00
2023-03-16T03:20:19.823Z,0.95
2023-03-16T03:23:22.574Z,1.00
2023-03-16T03:26:25.004Z,1.17
2023-03-16T03:29:34.778Z,1.07
2023-03-16T03:32:37.341Z,1.10
2023-03-16T03:35:39.764Z,0.88
2023-03-16T03:38:42.233Z,0.95
2023-03-16T03:41:45.532Z,1.10
2023-03-16T03:44:48.138Z,1.13
2023-03-16T03:47:51.018Z,0.85
2023-03-16T03:50:56.073Z,0.90
2023-03-16T03:54:18.725Z,0.90
2023-03-16T03:57:28.578Z,1.13
2023-03-16T04:00:31.246Z,0.90
2023-03-16T04:03:33.856Z,1.10
2023-03-16T04:06:36.488Z,1.10
2023-03-16T04:09:39.013Z,0.98
2023-03-16T04:12:43.195Z,0.93
2023-03-16T04:15:47.950Z,0.70
2023-03-16T04:18:57.243Z,0.90
2023-03-16T04:21:59.588Z,0.82
2023-03-16T04:25:04.037Z,0.50
2023-03-16T04:28:07.714Z,0.73
2023-03-16T04:31:13.293Z,0.87
2023-03-16T04:34:19.686Z,0.70
2023-03-16T04:37:22.445Z,0.60
2023-03-16T04:40:26.389Z,0.70
2023-03-16T04:43:37.641Z,0.67
2023-03-16T04:46:46.327Z,0.67
2023-03-16T04:49:49.447Z,0.70
2023-03-16T04:52:52.450Z,0.80
2023-03-16T04:55:55.665Z,0.80
2023-03-16T04:58:58.325Z,0.60
2023-03-16T05:02:04.535Z,0.60
2023-03-16T05:05:08.067Z,0.75
2023-03-16T05:08:12.302Z,0.60
2023-03-16T05:11:16.774Z,0.85
2023-03-16T05:14:29.130Z,2.77
2023-03-16T05:17:47.149Z,3.53
2023-03-16T05:20:53.766Z,3.95
2023-03-16T05:23:56.852Z,3.67
2023-03-16T05:26:59.295Z,2.97
2023-03-16T05:30:01.860Z,5.80
2023-03-16T05:33:07.409Z,4.23
2023-03-16T05:36:10.818Z,4.72
2023-03-16T05:39:15.766Z,3.70
2023-03-16T05:42:22.396Z,3.47
2023-03-16T05:45:30.515Z,3.30
2023-03-16T05:48:44.841Z,3.53
2023-03-16T05:51:50.726Z,3.10
2023-03-16T05:54:53.197Z,3.00
2023-03-16T05:57:55.637Z,3.03
2023-03-16T06:01:01.864Z,2.80
2023-03-16T06:04:07.466Z,3.00
2023-03-16T06:07:13.542Z,2.75
2023-03-16T06:10:16.445Z,3.13
2023-03-16T06:13:19.074Z,2.92
2023-03-16T06:16:21.799Z,2.80
2023-03-16T06:19:24.379Z,2.70
2023-03-16T06:22:32.575Z,2.47
2023-03-16T06:25:35.297Z,2.42
2023-03-16T06:28:39.786Z,2.30
2023-03-16T06:31:42.532Z,2.17
2023-03-16T06:34:46.008Z,1.83
2023-03-16T06:37:48.521Z,2.10
2023-03-16T06:41:12.969Z,2.10
2023-03-16T06:44:15.509Z,2.15
2023-03-16T06:47:29.115Z,1.97
2023-03-16T06:50:31.678Z,4.57
2023-03-16T06:53:34.624Z,5.50
2023-03-16T06:56:37.359Z,4.68
2023-03-16T06:59:40.302Z,4.82
2023-03-16T07:02:44.121Z,4.07
2023-03-16T07:05:49.042Z,4.40
2023-03-16T07:08:53.749Z,4.32
2023-03-16T07:11:58.341Z,4.95
2023-03-16T07:15:01.713Z,5.07
2023-03-16T07:18:06.305Z,3.97
2023-03-16T07:21:09.469Z,4.43
2023-03-16T07:24:13.167Z,3.92
2023-03-16T07:27:17.029Z,3.50
